Mt Bomar Mars — 9HCM9 — position and weather

sailwx.info

Track history (hours):
 
Tides and Currents Weather Stations Pressure Air Temp Water Temp Dewpoint Dewpoint Depression Visibility Wind Speed Wind Dir Waves Ship Positions

Mt Bomar Mars

Last reported at 2016-Aug-31 12:04 UTC. Time now 2016-Aug-31 16:09 UTC.
Position N 41°55' E 003°48'.

Length 107 m; draft 7 m.

Type: Ship. MMSI: 256784000.

Date/timePositionNaut miles runAvg speedWind from/ knotsBaromVisibWave heightAir tempDewpointWater temp
2016-Aug-31 12:04N 41°55' E 003°48'610.8
2016-Aug-31 11:33N 41°51' E 003°42'1111.2
2016-Aug-31 10:33N 41°46' E 003°28'1110.9
2016-Aug-31 09:33N 41°40' E 003°16'1111.2
2016-Aug-31 08:33N 41°35' E 003°02'1311.8
2016-Aug-31 07:25N 41°29' E 002°47'  
2016-Aug-27 20:14N 40°04' E 000°26'811.7
2016-Aug-27 19:30N 40°09' E 000°35'1111.8
2016-Aug-27 18:32N 40°16' E 000°47'1211.8
2016-Aug-27 17:33N 40°23' E 000°59'1211.9
2016-Aug-27 16:33N 40°31' E 001°11'1 0.5
2016-Aug-27 15:33N 40°31' E 001°11'1 0.8
2016-Aug-27 14:33N 40°30' E 001°11'3 2.9
2016-Aug-27 13:33N 40°31' E 001°14'9 8.8
2016-Aug-27 12:33N 40°37' E 001°23'1110.6
2016-Aug-27 11:33N 40°47' E 001°24'  
2016-Aug-22 17:33N 41°04' E 001°12'17 8.4
2016-Aug-22 15:30N 40°47' E 001°09'1411.4
2016-Aug-22 14:19N 40°33' E 001°06'911.3
2016-Aug-22 13:33N 40°25' E 001°04'1211.2
2016-Aug-22 12:29N 40°13' E 001°02'16311.0
2016-Aug-21 21:33N 37°43' W 000°22'1110.5
2016-Aug-21 20:33N 37°35' W 000°30'10 9.9
2016-Aug-21 19:33N 37°30' W 000°41'  
Track history (hours):
 
Tides and Currents Weather Stations Pressure Air Temp Water Temp Dewpoint Dewpoint Depression Visibility Wind Speed Wind Dir Waves Ship Positions

Mt Bomar Mars

Last reported at 2016-Aug-31 12:04 UTC. Time now 2016-Aug-31 16:09 UTC.
Position N 41°55' E 003°48'.

Length 107 m; draft 7 m.

Type: Ship. MMSI: 256784000.

Date/timePositionNaut miles runAvg speedWind from/ knotsBaromVisibWave heightAir tempDewpointWater temp
2016-Aug-31 12:04N 41°55' E 003°48'610.8
2016-Aug-31 11:33N 41°51' E 003°42'1111.2
2016-Aug-31 10:33N 41°46' E 003°28'1110.9
2016-Aug-31 09:33N 41°40' E 003°16'1111.2
2016-Aug-31 08:33N 41°35' E 003°02'1311.8
2016-Aug-31 07:25N 41°29' E 002°47'  
2016-Aug-27 20:14N 40°04' E 000°26'811.7
2016-Aug-27 19:30N 40°09' E 000°35'1111.8
2016-Aug-27 18:32N 40°16' E 000°47'1211.8
2016-Aug-27 17:33N 40°23' E 000°59'1211.9
2016-Aug-27 16:33N 40°31' E 001°11'1 0.5
2016-Aug-27 15:33N 40°31' E 001°11'1 0.8
2016-Aug-27 14:33N 40°30' E 001°11'3 2.9
2016-Aug-27 13:33N 40°31' E 001°14'9 8.8
2016-Aug-27 12:33N 40°37' E 001°23'1110.6
2016-Aug-27 11:33N 40°47' E 001°24'  
2016-Aug-22 17:33N 41°04' E 001°12'17 8.4
2016-Aug-22 15:30N 40°47' E 001°09'1411.4
2016-Aug-22 14:19N 40°33' E 001°06'911.3
2016-Aug-22 13:33N 40°25' E 001°04'1211.2
2016-Aug-22 12:29N 40°13' E 001°02'16311.0
2016-Aug-21 21:33N 37°43' W 000°22'1110.5
2016-Aug-21 20:33N 37°35' W 000°30'10 9.9
2016-Aug-21 19:33N 37°30' W 000°41'  

Dump ship's entire track history